sensor_id;sensor_type;location;lat;lon;timestamp;temperature;humidity
59469;DHT22;45277;52.768;18.262;2022-10-16T00:03:16;11.70;99.90
59469;DHT22;45277;52.768;18.262;2022-10-16T00:07:58;11.70;99.90
59469;DHT22;45277;52.768;18.262;2022-10-16T00:18:19;11.60;99.90
59469;DHT22;45277;52.768;18.262;2022-10-16T00:32:23;11.40;99.90
59469;DHT22;45277;52.768;18.262;2022-10-16T00:37:04;11.40;99.90
59469;DHT22;45277;52.768;18.262;2022-10-16T00:51:21;11.80;99.90
59469;DHT22;45277;52.768;18.262;2022-10-16T00:56:04;11.80;99.90
59469;DHT22;45277;52.768;18.262;2022-10-16T01:00:45;11.80;99.90
59469;DHT22;45277;52.768;18.262;2022-10-16T01:05:29;11.80;99.90
59469;DHT22;45277;52.768;18.262;2022-10-16T01:18:14;12.00;99.90
59469;DHT22;45277;52.768;18.262;2022-10-16T01:27:45;12.20;99.90
59469;DHT22;45277;52.768;18.262;2022-10-16T01:32:38;12.30;99.90
59469;DHT22;45277;52.768;18.262;2022-10-16T01:42:28;12.50;99.90
59469;DHT22;45277;52.768;18.262;2022-10-16T02:01:25;12.60;99.90
59469;DHT22;45277;52.768;18.262;2022-10-16T02:02:59;12.70;99.90
59469;DHT22;45277;52.768;18.262;2022-10-16T02:07:46;12.60;99.90
59469;DHT22;45277;52.768;18.262;2022-10-16T02:12:28;12.70;99.90
59469;DHT22;45277;52.768;18.262;2022-10-16T02:18:36;12.70;99.90
59469;DHT22;45277;52.768;18.262;2022-10-16T02:20:09;12.70;99.90
59469;DHT22;45277;52.768;18.262;2022-10-16T02:29:42;12.70;99.90
59469;DHT22;45277;52.768;18.262;2022-10-16T02:39:09;12.80;99.90
59469;DHT22;45277;52.768;18.262;2022-10-16T02:43:51;12.90;99.90
59469;DHT22;45277;52.768;18.262;2022-10-16T02:48:29;12.90;99.90
59469;DHT22;45277;52.768;18.262;2022-10-16T02:53:10;13.00;99.90
59469;DHT22;45277;52.768;18.262;2022-10-16T02:57:52;13.00;99.90
59469;DHT22;45277;52.768;18.262;2022-10-16T03:02:33;13.00;99.90
59469;DHT22;45277;52.768;18.262;2022-10-16T03:07:13;13.10;99.90
59469;DHT22;45277;52.768;18.262;2022-10-16T03:13:26;13.10;99.90
59469;DHT22;45277;52.768;18.262;2022-10-16T03:19:32;13.10;99.90
59469;DHT22;45277;52.768;18.262;2022-10-16T03:24:16;13.20;99.90
59469;DHT22;45277;52.768;18.262;2022-10-16T03:28:57;13.10;99.90
59469;DHT22;45277;52.768;18.262;2022-10-16T03:47:43;13.20;99.90
59469;DHT22;45277;52.768;18.262;2022-10-16T03:52:24;13.20;99.90
59469;DHT22;45277;52.768;18.262;2022-10-16T03:57:06;13.20;99.90
59469;DHT22;45277;52.768;18.262;2022-10-16T04:01:44;13.20;99.90
59469;DHT22;45277;52.768;18.262;2022-10-16T04:16:44;13.20;99.90
59469;DHT22;45277;52.768;18.262;2022-10-16T04:21:29;13.30;99.90
59469;DHT22;45277;52.768;18.262;2022-10-16T04:26:13;13.30;99.90
59469;DHT22;45277;52.768;18.262;2022-10-16T04:35:32;13.30;99.90
59469;DHT22;45277;52.768;18.262;2022-10-16T04:40:14;13.30;99.90
59469;DHT22;45277;52.768;18.262;2022-10-16T04:54:17;13.40;99.90
59469;DHT22;45277;52.768;18.262;2022-10-16T04:58:55;13.50;99.90
59469;DHT22;45277;52.768;18.262;2022-10-16T05:03:36;13.50;99.90
59469;DHT22;45277;52.768;18.262;2022-10-16T05:08:18;13.50;99.90
59469;DHT22;45277;52.768;18.262;2022-10-16T05:23:24;13.50;99.90
59469;DHT22;45277;52.768;18.262;2022-10-16T05:28:02;13.50;99.90
59469;DHT22;45277;52.768;18.262;2022-10-16T05:32:47;13.50;99.90
59469;DHT22;45277;52.768;18.262;2022-10-16T05:37:32;13.50;99.90
59469;DHT22;45277;52.768;18.262;2022-10-16T05:42:16;13.50;99.90
59469;DHT22;45277;52.768;18.262;2022-10-16T05:51:42;13.50;99.90
59469;DHT22;45277;52.768;18.262;2022-10-16T05:56:20;13.60;99.90
59469;DHT22;45277;52.768;18.262;2022-10-16T06:05:44;13.80;99.90
59469;DHT22;45277;52.768;18.262;2022-10-16T06:10:22;13.90;99.90
59469;DHT22;45277;52.768;18.262;2022-10-16T06:15:03;14.10;99.90
59469;DHT22;45277;52.768;18.262;2022-10-16T06:25:24;14.50;99.90
59469;DHT22;45277;52.768;18.262;2022-10-16T06:30:02;14.60;99.90
59469;DHT22;45277;52.768;18.262;2022-10-16T06:34:41;14.70;99.90
59469;DHT22;45277;52.768;18.262;2022-10-16T06:39:22;14.60;99.90
59469;DHT22;45277;52.768;18.262;2022-10-16T06:44:06;14.50;99.90
59469;DHT22;45277;52.768;18.262;2022-10-16T06:48:48;14.50;99.90
59469;DHT22;45277;52.768;18.262;2022-10-16T06:58:11;14.80;99.90
59469;DHT22;45277;52.768;18.262;2022-10-16T07:07:35;14.90;99.90
59469;DHT22;45277;52.768;18.262;2022-10-16T07:12:13;14.90;99.90
59469;DHT22;45277;52.768;18.262;2022-10-16T07:16:51;15.00;99.90
59469;DHT22;45277;52.768;18.262;2022-10-16T07:26:59;14.90;99.90
59469;DHT22;45277;52.768;18.262;2022-10-16T07:31:43;15.00;99.90
59469;DHT22;45277;52.768;18.262;2022-10-16T07:36:24;15.20;99.90
59469;DHT22;45277;52.768;18.262;2022-10-16T07:41:06;15.20;99.90
59469;DHT22;45277;52.768;18.262;2022-10-16T07:45:48;15.20;99.90
59469;DHT22;45277;52.768;18.262;2022-10-16T07:50:33;15.30;99.90
59469;DHT22;45277;52.768;18.262;2022-10-16T07:55:14;15.30;99.90
59469;DHT22;45277;52.768;18.262;2022-10-16T07:59:55;15.40;99.90
59469;DHT22;45277;52.768;18.262;2022-10-16T08:05:41;15.90;99.90
59469;DHT22;45277;52.768;18.262;2022-10-16T08:10:21;16.20;99.90
59469;DHT22;45277;52.768;18.262;2022-10-16T08:15:02;16.40;99.90
59469;DHT22;45277;52.768;18.262;2022-10-16T08:19:47;16.70;99.90
59469;DHT22;45277;52.768;18.262;2022-10-16T08:25:26;16.90;99.90
59469;DHT22;45277;52.768;18.262;2022-10-16T08:30:13;17.20;99.90
59469;DHT22;45277;52.768;18.262;2022-10-16T08:34:52;17.40;99.90
59469;DHT22;45277;52.768;18.262;2022-10-16T08:39:33;17.50;99.90
59469;DHT22;45277;52.768;18.262;2022-10-16T08:49:05;17.80;99.90
59469;DHT22;45277;52.768;18.262;2022-10-16T08:58:48;18.30;99.90
59469;DHT22;45277;52.768;18.262;2022-10-16T09:08:27;18.70;99.90
59469;DHT22;45277;52.768;18.262;2022-10-16T09:28:24;18.40;99.90
59469;DHT22;45277;52.768;18.262;2022-10-16T09:42:35;19.20;99.90
59469;DHT22;45277;52.768;18.262;2022-10-16T09:56:49;19.50;99.90
59469;DHT22;45277;52.768;18.262;2022-10-16T10:01:40;19.30;99.90
59469;DHT22;45277;52.768;18.262;2022-10-16T10:06:24;19.70;99.90
59469;DHT22;45277;52.768;18.262;2022-10-16T10:11:07;19.70;99.90
59469;DHT22;45277;52.768;18.262;2022-10-16T10:15:48;19.60;99.90
59469;DHT22;45277;52.768;18.262;2022-10-16T10:20:31;19.60;99.90
59469;DHT22;45277;52.768;18.262;2022-10-16T10:25:19;19.40;99.90
59469;DHT22;45277;52.768;18.262;2022-10-16T10:40:23;19.60;99.90
59469;DHT22;45277;52.768;18.262;2022-10-16T11:16:24;21.50;99.90
59469;DHT22;45277;52.768;18.262;2022-10-16T11:21:02;22.90;99.90
59469;DHT22;45277;52.768;18.262;2022-10-16T11:25:51;22.10;99.90
59469;DHT22;45277;52.768;18.262;2022-10-16T11:36:19;20.50;99.90
59469;DHT22;45277;52.768;18.262;2022-10-16T11:41:10;21.50;99.90
59469;DHT22;45277;52.768;18.262;2022-10-16T11:46:08;21.20;99.90
59469;DHT22;45277;52.768;18.262;2022-10-16T11:47:51;21.20;99.90
59469;DHT22;45277;52.768;18.262;2022-10-16T11:52:45;21.00;99.90
59469;DHT22;45277;52.768;18.262;2022-10-16T11:57:32;21.20;99.90
59469;DHT22;45277;52.768;18.262;2022-10-16T12:02:17;21.30;99.90
59469;DHT22;45277;52.768;18.262;2022-10-16T12:07:07;21.80;99.90
59469;DHT22;45277;52.768;18.262;2022-10-16T12:11:51;22.10;99.90
59469;DHT22;45277;52.768;18.262;2022-10-16T12:16:36;21.50;99.90
59469;DHT22;45277;52.768;18.262;2022-10-16T12:21:21;21.30;99.90
59469;DHT22;45277;52.768;18.262;2022-10-16T12:26:04;21.60;99.90
59469;DHT22;45277;52.768;18.262;2022-10-16T12:36:50;20.80;99.90
59469;DHT22;45277;52.768;18.262;2022-10-16T12:41:33;21.10;99.90
59469;DHT22;45277;52.768;18.262;2022-10-16T12:50:56;20.80;99.90
59469;DHT22;45277;52.768;18.262;2022-10-16T12:55:42;20.70;99.90
59469;DHT22;45277;52.768;18.262;2022-10-16T13:00:25;20.70;99.90
59469;DHT22;45277;52.768;18.262;2022-10-16T13:10:06;20.50;99.90
59469;DHT22;45277;52.768;18.262;2022-10-16T13:29:21;20.30;99.90
59469;DHT22;45277;52.768;18.262;2022-10-16T13:34:49;20.20;99.90
59469;DHT22;45277;52.768;18.262;2022-10-16T13:39:30;20.30;99.90
59469;DHT22;45277;52.768;18.262;2022-10-16T13:44:12;20.50;99.90
59469;DHT22;45277;52.768;18.262;2022-10-16T13:48:57;20.60;99.90
59469;DHT22;45277;52.768;18.262;2022-10-16T13:53:41;20.60;99.90
59469;DHT22;45277;52.768;18.262;2022-10-16T13:58:20;20.40;99.90
59469;DHT22;45277;52.768;18.262;2022-10-16T14:03:04;20.60;99.90
59469;DHT22;45277;52.768;18.262;2022-10-16T14:07:39;20.80;99.90
59469;DHT22;45277;52.768;18.262;2022-10-16T14:12:24;20.90;99.90
59469;DHT22;45277;52.768;18.262;2022-10-16T14:17:06;20.80;99.90
59469;DHT22;45277;52.768;18.262;2022-10-16T14:26:26;20.80;99.90
59469;DHT22;45277;52.768;18.262;2022-10-16T14:41:21;20.20;99.90
59469;DHT22;45277;52.768;18.262;2022-10-16T14:46:12;20.10;99.90
59469;DHT22;45277;52.768;18.262;2022-10-16T14:51:00;20.10;99.90
59469;DHT22;45277;52.768;18.262;2022-10-16T14:55:42;20.20;99.90
59469;DHT22;45277;52.768;18.262;2022-10-16T15:00:21;20.30;99.90
59469;DHT22;45277;52.768;18.262;2022-10-16T15:10:00;21.00;99.90
59469;DHT22;45277;52.768;18.262;2022-10-16T15:14:42;20.70;99.90
59469;DHT22;45277;52.768;18.262;2022-10-16T15:19:24;20.10;99.90
59469;DHT22;45277;52.768;18.262;2022-10-16T15:24:07;19.50;99.90
59469;DHT22;45277;52.768;18.262;2022-10-16T15:33:30;19.00;99.90
59469;DHT22;45277;52.768;18.262;2022-10-16T15:43:32;18.40;99.90
59469;DHT22;45277;52.768;18.262;2022-10-16T15:48:12;18.20;99.90
59469;DHT22;45277;52.768;18.262;2022-10-16T15:52:58;18.00;99.90
59469;DHT22;45277;52.768;18.262;2022-10-16T15:57:43;18.00;99.90
59469;DHT22;45277;52.768;18.262;2022-10-16T16:02:27;17.80;99.90
59469;DHT22;45277;52.768;18.262;2022-10-16T16:07:06;17.70;99.90
59469;DHT22;45277;52.768;18.262;2022-10-16T16:16:35;17.40;99.90
59469;DHT22;45277;52.768;18.262;2022-10-16T16:21:23;17.20;99.90
59469;DHT22;45277;52.768;18.262;2022-10-16T16:26:09;17.00;99.90
59469;DHT22;45277;52.768;18.262;2022-10-16T16:45:40;16.40;99.90
59469;DHT22;45277;52.768;18.262;2022-10-16T16:50:22;16.20;99.90
59469;DHT22;45277;52.768;18.262;2022-10-16T16:59:50;15.70;99.90
59469;DHT22;45277;52.768;18.262;2022-10-16T17:04:29;15.60;99.90
59469;DHT22;45277;52.768;18.262;2022-10-16T17:09:11;15.50;99.90
59469;DHT22;45277;52.768;18.262;2022-10-16T17:13:57;15.40;99.90
59469;DHT22;45277;52.768;18.262;2022-10-16T17:18:43;15.20;99.90
59469;DHT22;45277;52.768;18.262;2022-10-16T17:28:10;14.60;99.90
59469;DHT22;45277;52.768;18.262;2022-10-16T17:32:48;14.40;99.90
59469;DHT22;45277;52.768;18.262;2022-10-16T17:37:26;14.20;99.90
59469;DHT22;45277;52.768;18.262;2022-10-16T17:47:35;13.60;99.90
59469;DHT22;45277;52.768;18.262;2022-10-16T17:52:16;13.50;99.90
59469;DHT22;45277;52.768;18.262;2022-10-16T17:56:58;13.50;99.90
59469;DHT22;45277;52.768;18.262;2022-10-16T18:01:37;13.40;99.90
59469;DHT22;45277;52.768;18.262;2022-10-16T18:06:17;13.50;99.90
59469;DHT22;45277;52.768;18.262;2022-10-16T18:10:59;13.40;99.90
59469;DHT22;45277;52.768;18.262;2022-10-16T18:15:41;13.50;99.90
59469;DHT22;45277;52.768;18.262;2022-10-16T18:20:26;13.70;99.90
59469;DHT22;45277;52.768;18.262;2022-10-16T18:34:39;14.10;99.90
59469;DHT22;45277;52.768;18.262;2022-10-16T18:39:21;14.00;99.90
59469;DHT22;45277;52.768;18.262;2022-10-16T18:49:31;14.00;99.90
59469;DHT22;45277;52.768;18.262;2022-10-16T18:54:15;14.00;99.90
59469;DHT22;45277;52.768;18.262;2022-10-16T18:58:55;13.90;99.90
59469;DHT22;45277;52.768;18.262;2022-10-16T19:03:41;13.80;99.90
59469;DHT22;45277;52.768;18.262;2022-10-16T19:08:20;13.70;99.90
59469;DHT22;45277;52.768;18.262;2022-10-16T19:13:07;13.60;99.90
59469;DHT22;45277;52.768;18.262;2022-10-16T19:17:46;13.60;99.90
59469;DHT22;45277;52.768;18.262;2022-10-16T19:22:25;13.50;99.90
59469;DHT22;45277;52.768;18.262;2022-10-16T19:32:14;13.30;99.90
59469;DHT22;45277;52.768;18.262;2022-10-16T19:36:56;13.20;99.90
59469;DHT22;45277;52.768;18.262;2022-10-16T19:41:41;13.10;99.90
59469;DHT22;45277;52.768;18.262;2022-10-16T19:51:49;13.00;99.90
59469;DHT22;45277;52.768;18.262;2022-10-16T19:56:35;13.00;99.90
59469;DHT22;45277;52.768;18.262;2022-10-16T20:01:17;12.80;99.90
59469;DHT22;45277;52.768;18.262;2022-10-16T20:05:58;12.80;99.90
59469;DHT22;45277;52.768;18.262;2022-10-16T20:10:36;12.90;99.90
59469;DHT22;45277;52.768;18.262;2022-10-16T20:12:07;12.90;99.90
59469;DHT22;45277;52.768;18.262;2022-10-16T20:16:50;12.90;99.90
59469;DHT22;45277;52.768;18.262;2022-10-16T20:21:39;12.80;99.90
59469;DHT22;45277;52.768;18.262;2022-10-16T20:26:18;12.70;99.90
59469;DHT22;45277;52.768;18.262;2022-10-16T20:31:07;12.50;99.90
59469;DHT22;45277;52.768;18.262;2022-10-16T20:35:47;12.30;99.90
59469;DHT22;45277;52.768;18.262;2022-10-16T20:40:26;12.20;99.90
59469;DHT22;45277;52.768;18.262;2022-10-16T20:50:34;12.00;99.90
59469;DHT22;45277;52.768;18.262;2022-10-16T21:00:04;11.90;99.90
59469;DHT22;45277;52.768;18.262;2022-10-16T21:04:43;12.00;99.90
59469;DHT22;45277;52.768;18.262;2022-10-16T21:09:30;11.90;99.90
59469;DHT22;45277;52.768;18.262;2022-10-16T21:18:52;11.60;99.90
59469;DHT22;45277;52.768;18.262;2022-10-16T21:23:31;11.50;99.90
59469;DHT22;45277;52.768;18.262;2022-10-16T21:28:09;11.30;99.90
59469;DHT22;45277;52.768;18.262;2022-10-16T21:32:51;11.10;99.90
59469;DHT22;45277;52.768;18.262;2022-10-16T21:37:33;11.20;99.90
59469;DHT22;45277;52.768;18.262;2022-10-16T21:57:06;11.60;99.90
59469;DHT22;45277;52.768;18.262;2022-10-16T22:01:48;11.40;99.90
59469;DHT22;45277;52.768;18.262;2022-10-16T22:06:35;11.10;99.90
59469;DHT22;45277;52.768;18.262;2022-10-16T22:11:18;10.90;99.90
59469;DHT22;45277;52.768;18.262;2022-10-16T22:16:03;10.80;99.90
59469;DHT22;45277;52.768;18.262;2022-10-16T22:20:45;10.80;99.90
59469;DHT22;45277;52.768;18.262;2022-10-16T22:25:26;10.90;99.90
59469;DHT22;45277;52.768;18.262;2022-10-16T22:30:04;10.80;99.90
59469;DHT22;45277;52.768;18.262;2022-10-16T22:34:42;10.70;99.90
59469;DHT22;45277;52.768;18.262;2022-10-16T22:39:24;10.60;99.90
59469;DHT22;45277;52.768;18.262;2022-10-16T22:44:05;10.70;99.90
59469;DHT22;45277;52.768;18.262;2022-10-16T22:48:49;10.80;99.90
59469;DHT22;45277;52.768;18.262;2022-10-16T22:59:12;10.40;99.90
59469;DHT22;45277;52.768;18.262;2022-10-16T23:03:56;10.30;99.90
59469;DHT22;45277;52.768;18.262;2022-10-16T23:08:38;10.10;99.90
59469;DHT22;45277;52.768;18.262;2022-10-16T23:13:16;10.10;99.90
59469;DHT22;45277;52.768;18.262;2022-10-16T23:17:54;9.90;99.90
59469;DHT22;45277;52.768;18.262;2022-10-16T23:22:36;9.80;99.90
59469;DHT22;45277;52.768;18.262;2022-10-16T23:27:16;9.60;99.90
59469;DHT22;45277;52.768;18.262;2022-10-16T23:31:57;9.60;99.90
59469;DHT22;45277;52.768;18.262;2022-10-16T23:36:41;9.70;99.90
59469;DHT22;45277;52.768;18.262;2022-10-16T23:41:28;9.80;99.90
59469;DHT22;45277;52.768;18.262;2022-10-16T23:46:10;9.80;99.90
59469;DHT22;45277;52.768;18.262;2022-10-16T23:50:48;9.70;99.90
